Portada
METAR-TAF:

METAR-TAF

Aeropuertos :

Nimes, Francia

latitud: 43-45N, longitud: 004-25E, altitud: 94 m

Observación

El informe se hizo hace 35 minutos, a las 23:00 UTC
Viento 1 kt con dirección variable
Temperatura 9°C
Humedad 57%
Presión 1018 hPa
Visibilidad 10 km o más
sin nubes por debajo de 1500 m y sin presencia de cumulonimbus.

METAR: LFTW 312300Z AUTO VRB01KT CAVOK 09/01 Q1018

Hora: 01:35 (23:35 UTC)

Pronóstico

El informe se hizo hace 9 horas y 35 minutos, a las 14:00 UTC
Pronóstico válido del 31 a las 15 UTC al 01 a las 15 UTC
Viento 10 kt del sur-sureste
Visibilidad 10 km o más
Probabilidad 40% :
Temporalmente
del 31 a las 15 UTC al 31 a las 18 UTC
Nubes dispersas a una altura de 2600 ft, Cumulus congestus.
chaparrones de lluvia
Evolucionando progresivamente
del 31 a las 18 UTC al 31 a las 19 UTC
Viento 5 kt con dirección variable

TAF: LFTW 311400Z 3115/0115 16010KT 9999 NSC PROB40 TEMPO 3115/3118 SHRA SCT026TCU BECMG 3118/3119 VRB05KT

Observaciones y pronósticos meteorológicos de más de 4000 aeropuertos (mensajes METAR y TAF).

Los puntos amarillos y rojos representan las estaciones disponibles.

Ponga el ratón en el punto deseado para ver el nombre de la estación.

Haga clic para ver las observaciones y los pronósticos meteorológicos.

Para cambiar el mapa : haga clic en los botones verdes con una cruz de color negro para hacer un zoom, en el botón verde con un guión para alejar o en las flechas verdes para mapas adyacentes.


METAR-TAF: